createdAt,value
2023-01-22T00:01:08.899Z,102250.44
2023-01-22T00:03:36.008Z,102262.59
2023-01-22T00:06:02.548Z,102259.66
2023-01-22T00:08:29.798Z,102265.13
2023-01-22T00:10:56.906Z,102260.72
2023-01-22T00:13:24.971Z,102250.84
2023-01-22T00:15:51.936Z,102254.16
2023-01-22T00:18:20.057Z,102251.06
2023-01-22T00:20:46.999Z,102252.38
2023-01-22T00:23:13.538Z,102249.22
2023-01-22T00:25:39.910Z,102252.88
2023-01-22T00:28:06.463Z,102252.09
2023-01-22T00:30:32.958Z,102243.97
2023-01-22T00:32:59.356Z,102239.03
2023-01-22T00:35:27.245Z,102240.06
2023-01-22T00:37:53.652Z,102244.38
2023-01-22T00:40:20.418Z,102234.56
2023-01-22T00:42:47.076Z,102236.81
2023-01-22T00:45:14.858Z,102239.56
2023-01-22T00:47:41.581Z,102241.75
2023-01-22T00:50:09.565Z,102235.88
2023-01-22T00:52:37.336Z,102245.25
2023-01-22T00:55:04.500Z,102235.22
2023-01-22T00:57:30.938Z,102226.75
2023-01-22T00:59:57.362Z,102234.22
2023-01-22T01:02:23.762Z,102232.06
2023-01-22T01:04:50.171Z,102235.00
2023-01-22T01:07:16.597Z,102225.84
2023-01-22T01:09:44.320Z,102236.69
2023-01-22T01:12:10.691Z,102229.91
2023-01-22T01:14:37.136Z,102230.06
2023-01-22T01:17:03.845Z,102222.56
2023-01-22T01:19:30.263Z,102221.84
2023-01-22T01:21:56.763Z,102218.59
2023-01-22T01:24:23.145Z,102225.38
2023-01-22T01:26:50.892Z,102219.78
2023-01-22T01:29:17.630Z,102208.91
2023-01-22T01:31:44.115Z,102215.59
2023-01-22T01:34:10.629Z,102220.81
2023-01-22T01:36:52.516Z,102211.88
2023-01-22T01:39:19.000Z,102214.16
2023-01-22T01:41:45.440Z,102210.63
2023-01-22T01:44:15.820Z,102212.22
2023-01-22T01:46:46.479Z,102213.72
2023-01-22T01:49:19.882Z,102212.03
2023-01-22T01:51:47.837Z,102211.88
2023-01-22T01:54:14.354Z,102206.38
2023-01-22T01:56:46.353Z,102202.41
2023-01-22T01:59:16.894Z,102211.00
2023-01-22T02:01:47.715Z,102207.19
2023-01-22T02:04:14.433Z,102209.13
2023-01-22T02:06:40.877Z,102211.16
2023-01-22T02:09:07.477Z,102204.59
2023-01-22T02:11:34.610Z,102210.50
2023-01-22T02:14:04.879Z,102215.59
2023-01-22T02:16:33.215Z,102215.25
2023-01-22T02:18:59.715Z,102217.31
2023-01-22T02:21:34.674Z,102218.31
2023-01-22T02:24:01.745Z,102214.38
2023-01-22T02:26:28.409Z,102212.19
2023-01-22T02:28:54.933Z,102214.63
2023-01-22T02:31:21.329Z,102202.66
2023-01-22T02:33:47.743Z,102210.38
2023-01-22T02:36:14.395Z,102208.34
2023-01-22T02:38:42.175Z,102202.13
2023-01-22T02:41:08.948Z,102201.34
2023-01-22T02:43:35.728Z,102204.09
2023-01-22T02:46:02.156Z,102193.13
2023-01-22T02:48:28.597Z,102205.84
2023-01-22T02:50:55.056Z,102204.50
2023-01-22T02:53:21.488Z,102204.75
2023-01-22T02:55:49.220Z,102206.91
2023-01-22T02:58:15.746Z,102198.53
2023-01-22T03:00:42.164Z,102196.38
2023-01-22T03:03:08.645Z,102199.03
2023-01-22T03:05:35.078Z,102193.44
2023-01-22T03:08:01.822Z,102184.88
2023-01-22T03:10:28.270Z,102196.03
2023-01-22T03:12:56.021Z,102189.81
2023-01-22T03:15:22.509Z,102193.81
2023-01-22T03:17:48.930Z,102192.88
2023-01-22T03:20:16.124Z,102189.78
2023-01-22T03:22:42.684Z,102184.66
2023-01-22T03:25:09.326Z,102194.81
2023-01-22T03:27:35.748Z,102188.06
2023-01-22T03:30:04.441Z,102193.53
2023-01-22T03:32:30.871Z,102181.03
2023-01-22T03:34:57.278Z,102188.34
2023-01-22T03:37:23.686Z,102183.00
2023-01-22T03:39:50.501Z,102188.72
2023-01-22T03:42:16.931Z,102196.38
2023-01-22T03:44:43.353Z,102184.47
2023-01-22T03:47:11.146Z,102186.28
2023-01-22T03:49:37.579Z,102186.72
2023-01-22T03:52:03.995Z,102192.25
2023-01-22T03:54:30.373Z,102187.97
2023-01-22T03:56:56.843Z,102188.25
2023-01-22T03:59:23.269Z,102191.88
2023-01-22T04:01:49.679Z,102183.28
2023-01-22T04:04:17.578Z,102188.59
2023-01-22T04:06:43.987Z,102179.38
2023-01-22T04:09:10.379Z,102179.63
2023-01-22T04:11:36.826Z,102190.63
2023-01-22T04:14:03.219Z,102187.22
2023-01-22T04:16:29.638Z,102189.72
2023-01-22T04:18:56.100Z,102194.59
2023-01-22T04:21:23.983Z,102190.88
2023-01-22T04:23:50.411Z,102204.34
2023-01-22T04:26:16.896Z,102192.53
2023-01-22T04:28:43.319Z,102198.88
2023-01-22T04:31:10.035Z,102190.56
2023-01-22T04:33:36.539Z,102198.03
2023-01-22T04:36:03.355Z,102201.25
2023-01-22T04:38:31.179Z,102197.81
2023-01-22T04:40:57.632Z,102196.91
2023-01-22T04:43:24.021Z,102197.97
2023-01-22T04:45:50.501Z,102200.88
2023-01-22T04:48:17.177Z,102200.97
2023-01-22T04:50:45.554Z,102199.03
2023-01-22T04:53:12.706Z,102193.91
2023-01-22T04:55:40.485Z,102202.19
2023-01-22T04:58:06.865Z,102198.69
2023-01-22T05:00:33.274Z,102201.06
2023-01-22T05:03:01.738Z,102188.66
2023-01-22T05:05:29.114Z,102191.19
2023-01-22T05:07:55.929Z,102191.97
2023-01-22T05:10:22.576Z,102195.00
2023-01-22T05:12:50.343Z,102187.88
2023-01-22T05:15:24.065Z,102197.72
2023-01-22T05:17:51.767Z,102189.19
2023-01-22T05:20:18.680Z,102190.88
2023-01-22T05:22:45.329Z,102196.28
2023-01-22T05:25:12.214Z,102190.19
2023-01-22T05:27:38.644Z,102194.00
2023-01-22T05:30:08.480Z,102197.81
2023-01-22T05:32:35.218Z,102195.31
2023-01-22T05:35:01.913Z,102200.41
2023-01-22T05:37:28.883Z,102195.19
2023-01-22T05:39:55.293Z,102193.53
2023-01-22T05:42:21.694Z,102207.03
2023-01-22T05:44:48.151Z,102206.78
2023-01-22T05:47:16.076Z,102210.03
2023-01-22T05:49:42.613Z,102214.91
2023-01-22T05:52:09.279Z,102209.59
2023-01-22T05:54:36.197Z,102209.47
2023-01-22T05:57:03.348Z,102203.53
2023-01-22T05:59:29.747Z,102204.00
2023-01-22T06:01:56.167Z,102214.91
2023-01-22T06:04:24.015Z,102216.38
2023-01-22T06:06:50.396Z,102219.00
2023-01-22T06:09:16.828Z,102218.81
2023-01-22T06:11:43.300Z,102216.28
2023-01-22T06:14:09.727Z,102222.97
2023-01-22T06:16:36.315Z,102216.78
2023-01-22T06:19:02.880Z,102218.34
2023-01-22T06:21:30.714Z,102222.94
2023-01-22T06:23:57.159Z,102214.56
2023-01-22T06:26:23.605Z,102219.06
2023-01-22T06:28:50.010Z,102225.50
2023-01-22T06:31:16.576Z,102215.31
2023-01-22T06:33:43.037Z,102221.38
2023-01-22T06:36:09.684Z,102219.69
2023-01-22T06:38:37.755Z,102226.00
2023-01-22T06:41:04.465Z,102224.63
2023-01-22T06:43:31.026Z,102234.44
2023-01-22T06:45:57.460Z,102232.28
2023-01-22T06:48:23.866Z,102233.03
2023-01-22T06:50:50.394Z,102234.13
2023-01-22T06:53:17.024Z,102234.00
2023-01-22T06:55:44.761Z,102247.19
2023-01-22T06:58:11.141Z,102254.78
2023-01-22T07:00:37.716Z,102251.09
2023-01-22T07:03:08.231Z,102252.66
2023-01-22T07:05:35.011Z,102247.34
2023-01-22T07:08:02.007Z,102257.34
2023-01-22T07:10:28.751Z,102260.13
2023-01-22T07:12:57.538Z,102258.09
2023-01-22T07:15:24.587Z,102271.75
2023-01-22T07:17:51.665Z,102264.75
2023-01-22T07:20:18.989Z,102275.63
2023-01-22T07:22:45.599Z,102273.84
2023-01-22T07:25:11.998Z,102279.34
2023-01-22T07:27:38.392Z,102273.44
2023-01-22T07:30:08.007Z,102279.34
2023-01-22T07:32:35.093Z,102274.50
2023-01-22T07:35:01.554Z,102288.09
2023-01-22T07:37:28.108Z,102286.91
2023-01-22T07:39:54.496Z,102291.69
2023-01-22T07:42:20.917Z,102299.19
2023-01-22T07:44:47.322Z,102300.28
2023-01-22T07:47:15.119Z,102296.94
2023-01-22T07:49:41.537Z,102296.75
2023-01-22T07:52:07.988Z,102305.91
2023-01-22T07:54:34.395Z,102298.78
2023-01-22T07:57:00.781Z,102307.31
2023-01-22T07:59:27.271Z,102305.69
2023-01-22T08:01:54.512Z,102310.28
2023-01-22T08:04:22.332Z,102304.78
2023-01-22T08:06:48.979Z,102305.69
2023-01-22T08:09:15.382Z,102309.13
2023-01-22T08:11:41.783Z,102309.91
2023-01-22T08:14:08.195Z,102313.88
2023-01-22T08:16:34.933Z,102308.31
2023-01-22T08:19:01.385Z,102316.66
2023-01-22T08:21:29.139Z,102313.66
2023-01-22T08:23:55.533Z,102313.13
2023-01-22T08:26:21.996Z,102316.97
2023-01-22T08:28:48.396Z,102318.72
2023-01-22T08:31:27.047Z,102316.75
2023-01-22T08:33:54.503Z,102325.81
2023-01-22T08:36:20.895Z,102326.16
2023-01-22T08:38:48.682Z,102324.03
2023-01-22T08:41:15.125Z,102326.81
2023-01-22T08:43:41.525Z,102325.78
2023-01-22T08:46:07.989Z,102329.34
2023-01-22T08:48:34.484Z,102339.75
2023-01-22T08:51:01.044Z,102337.38
2023-01-22T08:53:27.517Z,102338.75
2023-01-22T08:55:55.289Z,102335.72
2023-01-22T08:58:21.705Z,102335.50
2023-01-22T09:00:48.577Z,102337.66
2023-01-22T09:03:15.084Z,102348.41
2023-01-22T09:05:41.632Z,102346.78
2023-01-22T09:08:08.178Z,102344.94
2023-01-22T09:10:34.884Z,102347.56
2023-01-22T09:13:02.635Z,102350.09
2023-01-22T09:15:29.046Z,102355.59
2023-01-22T09:17:55.754Z,102354.97
2023-01-22T09:20:22.356Z,102354.47
2023-01-22T09:22:49.226Z,102357.69
2023-01-22T09:25:16.180Z,102368.19
2023-01-22T09:27:42.615Z,102357.88
2023-01-22T09:30:11.692Z,102366.31
2023-01-22T09:32:38.137Z,102367.81
2023-01-22T09:35:05.046Z,102373.13
2023-01-22T09:37:31.456Z,102375.66
2023-01-22T09:39:57.916Z,102379.56
2023-01-22T09:42:28.193Z,102377.91
2023-01-22T09:44:59.191Z,102373.69
2023-01-22T09:47:33.416Z,102370.25
2023-01-22T09:50:04.717Z,102368.94
2023-01-22T09:52:33.754Z,102368.63
2023-01-22T09:55:00.447Z,102375.38
2023-01-22T09:57:32.592Z,102371.31
2023-01-22T09:59:59.296Z,102373.72
2023-01-22T10:02:30.740Z,102370.75
2023-01-22T10:05:01.533Z,102374.44
2023-01-22T10:07:32.268Z,102369.81
2023-01-22T10:10:02.287Z,102371.56
2023-01-22T10:12:29.297Z,102368.56
2023-01-22T10:14:56.355Z,102365.91
2023-01-22T10:17:27.445Z,102365.56
2023-01-22T10:19:59.254Z,102368.38
2023-01-22T10:22:26.595Z,102365.56
2023-01-22T10:24:53.481Z,102370.66
2023-01-22T10:27:22.572Z,102372.06
2023-01-22T10:29:58.444Z,102361.19
2023-01-22T10:32:27.332Z,102367.66
2023-01-22T10:35:00.106Z,102371.88
2023-01-22T10:37:26.540Z,102370.16
2023-01-22T10:39:57.746Z,102368.34
2023-01-22T10:42:26.123Z,102371.53
2023-01-22T10:44:55.965Z,102372.97
2023-01-22T10:47:23.921Z,102373.75
2023-01-22T10:50:04.868Z,102370.19
2023-01-22T10:52:37.799Z,102371.44
2023-01-22T10:55:05.731Z,102382.09
2023-01-22T10:57:35.378Z,102375.19
2023-01-22T11:00:19.810Z,102372.38
2023-01-22T11:02:49.578Z,102372.47
2023-01-22T11:05:19.281Z,102376.25
2023-01-22T11:07:47.452Z,102374.66
2023-01-22T11:10:20.123Z,102383.50
2023-01-22T11:12:50.772Z,102382.81
2023-01-22T11:15:24.495Z,102386.06
2023-01-22T11:17:52.806Z,102374.88
2023-01-22T11:20:25.734Z,102375.53
2023-01-22T11:23:03.292Z,102379.91
2023-01-22T11:25:41.881Z,102375.09
2023-01-22T11:28:20.826Z,102375.50
2023-01-22T11:31:06.534Z,102368.50
2023-01-22T11:33:55.101Z,102367.63
2023-01-22T11:36:28.072Z,102364.13
2023-01-22T11:38:59.015Z,102366.19
2023-01-22T11:41:55.118Z,102365.75
2023-01-22T11:44:36.522Z,102367.50
2023-01-22T11:47:38.876Z,102361.06
2023-01-22T11:50:20.516Z,102355.63
2023-01-22T11:52:58.835Z,102360.28
2023-01-22T11:55:43.893Z,102352.59
2023-01-22T11:58:23.186Z,102347.00
2023-01-22T12:00:58.667Z,102342.31
2023-01-22T12:03:50.673Z,102345.38
2023-01-22T12:06:38.864Z,102351.09
2023-01-22T12:09:15.928Z,102346.22
2023-01-22T12:11:58.007Z,102350.84
2023-01-22T12:14:38.985Z,102352.94
2023-01-22T12:17:17.255Z,102351.91
2023-01-22T12:19:55.822Z,102349.16
2023-01-22T12:22:31.627Z,102350.63
2023-01-22T12:25:03.616Z,102364.78
2023-01-22T12:27:34.670Z,102364.53
2023-01-22T12:30:13.541Z,102359.28
2023-01-22T12:32:45.338Z,102363.03
2023-01-22T12:35:15.768Z,102356.59
2023-01-22T12:37:46.437Z,102359.69
2023-01-22T12:40:38.550Z,102361.16
2023-01-22T12:43:06.423Z,102364.25
2023-01-22T12:45:43.648Z,102363.72
2023-01-22T12:48:29.700Z,102357.97
2023-01-22T12:50:57.735Z,102362.16
2023-01-22T12:53:27.467Z,102359.59
2023-01-22T12:56:01.657Z,102369.19
2023-01-22T12:58:30.160Z,102363.69
2023-01-22T13:01:02.988Z,102367.19
2023-01-22T13:03:32.486Z,102361.94
2023-01-22T13:06:01.525Z,102368.81
2023-01-22T13:08:37.898Z,102369.78
2023-01-22T13:11:08.040Z,102368.06
2023-01-22T13:13:39.305Z,102368.31
2023-01-22T13:16:16.638Z,102366.84
2023-01-22T13:18:47.237Z,102367.47
2023-01-22T13:21:15.735Z,102375.75
2023-01-22T13:23:44.578Z,102378.50
2023-01-22T13:26:18.521Z,102381.03
2023-01-22T13:28:50.930Z,102381.59
2023-01-22T13:31:17.782Z,102394.91
2023-01-22T13:33:53.577Z,102390.06
2023-01-22T13:36:20.019Z,102396.19
2023-01-22T13:38:52.051Z,102392.16
2023-01-22T13:41:30.392Z,102388.78
2023-01-22T13:43:57.190Z,102399.31
2023-01-22T13:46:24.533Z,102394.72
2023-01-22T13:49:04.129Z,102390.31
2023-01-22T13:51:33.290Z,102391.41
2023-01-22T13:54:01.009Z,102398.47
2023-01-22T13:56:29.820Z,102394.66
2023-01-22T13:59:14.652Z,102403.97
2023-01-22T14:01:41.348Z,102396.16
2023-01-22T14:04:25.894Z,102399.31
2023-01-22T14:06:52.311Z,102397.97
2023-01-22T14:09:26.083Z,102409.28
2023-01-22T14:11:53.767Z,102414.81
2023-01-22T14:14:20.211Z,102407.56
2023-01-22T14:16:46.866Z,102414.84
2023-01-22T14:19:14.030Z,102416.78
2023-01-22T14:21:41.218Z,102413.97
2023-01-22T14:24:08.615Z,102411.50
2023-01-22T14:26:35.374Z,102417.63
2023-01-22T14:29:03.472Z,102424.56
2023-01-22T14:31:29.947Z,102424.47
2023-01-22T14:33:56.491Z,102419.41
2023-01-22T14:36:22.887Z,102426.25
2023-01-22T14:38:49.293Z,102420.94
2023-01-22T14:41:15.813Z,102422.97
2023-01-22T14:43:42.209Z,102433.38
2023-01-22T14:46:09.969Z,102434.16
2023-01-22T14:48:36.560Z,102431.75
2023-01-22T14:51:08.131Z,102444.03
2023-01-22T14:53:34.582Z,102441.41
2023-01-22T14:56:01.041Z,102454.84
2023-01-22T14:58:27.519Z,102454.84
2023-01-22T15:00:54.320Z,102450.50
2023-01-22T15:03:22.126Z,102452.00
2023-01-22T15:05:50.885Z,102454.66
2023-01-22T15:08:17.355Z,102450.78
2023-01-22T15:10:43.813Z,102448.81
2023-01-22T15:13:10.244Z,102450.09
2023-01-22T15:15:36.640Z,102450.00
2023-01-22T15:18:03.296Z,102458.22
2023-01-22T15:20:31.032Z,102454.44
2023-01-22T15:22:57.645Z,102460.91
2023-01-22T15:25:24.084Z,102460.56
2023-01-22T15:27:50.507Z,102456.97
2023-01-22T15:30:17.872Z,102460.13
2023-01-22T15:32:44.421Z,102461.69
2023-01-22T15:35:10.838Z,102460.16
2023-01-22T15:37:38.647Z,102467.66
2023-01-22T15:40:06.288Z,102469.38
2023-01-22T15:42:32.799Z,102470.50
2023-01-22T15:44:59.216Z,102461.13
2023-01-22T15:47:25.646Z,102468.97
2023-01-22T15:49:52.060Z,102461.91
2023-01-22T15:52:18.461Z,102469.00
2023-01-22T15:54:46.215Z,102477.66
2023-01-22T15:57:12.686Z,102484.56
2023-01-22T15:59:39.142Z,102482.88
2023-01-22T16:02:05.912Z,102479.25
2023-01-22T16:04:32.426Z,102485.56
2023-01-22T16:06:58.823Z,102485.88
2023-01-22T16:09:25.423Z,102492.03
2023-01-22T16:11:53.294Z,102487.25
2023-01-22T16:14:19.773Z,102497.47
2023-01-22T16:16:46.239Z,102495.78
2023-01-22T16:19:12.663Z,102490.66
2023-01-22T16:21:39.658Z,102490.47
2023-01-22T16:24:06.914Z,102494.44
2023-01-22T16:26:35.406Z,102492.44
2023-01-22T16:29:05.069Z,102495.19
2023-01-22T16:31:33.748Z,102497.03
2023-01-22T16:34:06.091Z,102495.97
2023-01-22T16:36:32.686Z,102494.25
2023-01-22T16:38:59.740Z,102490.94
2023-01-22T16:41:28.168Z,102483.53
2023-01-22T16:43:57.063Z,102484.59
2023-01-22T16:46:27.004Z,102493.34
2023-01-22T16:49:01.766Z,102496.16
2023-01-22T16:51:33.451Z,102501.00
2023-01-22T16:53:59.888Z,102505.34
2023-01-22T16:56:26.293Z,102509.91
2023-01-22T16:58:52.854Z,102507.63
2023-01-22T17:01:19.677Z,102507.91
2023-01-22T17:03:47.409Z,102509.16
2023-01-22T17:06:22.175Z,102514.66
2023-01-22T17:08:48.866Z,102522.72
2023-01-22T17:11:15.716Z,102525.16
2023-01-22T17:13:42.188Z,102525.06
2023-01-22T17:16:09.615Z,102526.91
2023-01-22T17:18:36.053Z,102519.41
2023-01-22T17:21:06.640Z,102525.03
2023-01-22T17:23:33.493Z,102519.34
2023-01-22T17:26:00.027Z,102525.50
2023-01-22T17:28:26.517Z,102532.28
2023-01-22T17:30:53.044Z,102532.06
2023-01-22T17:33:19.486Z,102535.38
2023-01-22T17:35:45.991Z,102540.94
2023-01-22T17:38:13.758Z,102538.66
2023-01-22T17:40:40.188Z,102547.66
2023-01-22T17:43:06.691Z,102550.44
2023-01-22T17:45:33.087Z,102549.25
2023-01-22T17:47:59.472Z,102556.19
2023-01-22T17:50:25.976Z,102554.84
2023-01-22T17:52:52.369Z,102553.19
2023-01-22T17:55:20.463Z,102557.16
2023-01-22T17:57:47.136Z,102555.03
2023-01-22T18:00:14.821Z,102553.09
2023-01-22T18:02:41.274Z,102559.09
2023-01-22T18:05:10.373Z,102551.66
2023-01-22T18:07:36.917Z,102558.91
2023-01-22T18:10:03.737Z,102563.38
2023-01-22T18:12:31.571Z,102559.88
2023-01-22T18:14:58.088Z,102562.09
2023-01-22T18:17:24.603Z,102566.28
2023-01-22T18:19:51.127Z,102572.59
2023-01-22T18:22:17.549Z,102571.97
2023-01-22T18:24:44.246Z,102580.50
2023-01-22T18:27:10.971Z,102577.03
2023-01-22T18:29:38.810Z,102576.53
2023-01-22T18:32:05.618Z,102583.06
2023-01-22T18:34:32.194Z,102581.13
2023-01-22T18:36:58.674Z,102585.56
2023-01-22T18:39:25.131Z,102579.28
2023-01-22T18:41:51.925Z,102586.94
2023-01-22T18:44:19.512Z,102580.38
2023-01-22T18:46:47.359Z,102587.66
2023-01-22T18:49:17.680Z,102589.63
2023-01-22T18:51:44.556Z,102589.88
2023-01-22T18:54:11.649Z,102586.81
2023-01-22T18:56:38.502Z,102594.19
2023-01-22T18:59:05.221Z,102590.59
2023-01-22T19:01:34.297Z,102599.25
2023-01-22T19:04:04.734Z,102600.69
2023-01-22T19:06:35.110Z,102597.34
2023-01-22T19:09:05.980Z,102597.69
2023-01-22T19:11:34.456Z,102599.03
2023-01-22T19:14:02.509Z,102607.38
2023-01-22T19:16:29.633Z,102607.53
2023-01-22T19:18:58.139Z,102606.28
2023-01-22T19:21:27.059Z,102604.50
2023-01-22T19:23:55.226Z,102606.59
2023-01-22T19:26:23.849Z,102614.34
2023-01-22T19:28:52.865Z,102615.28
2023-01-22T19:31:22.462Z,102616.78
2023-01-22T19:33:50.761Z,102626.44
2023-01-22T19:36:18.557Z,102626.63
2023-01-22T19:38:46.456Z,102622.94
2023-01-22T19:41:13.195Z,102623.75
2023-01-22T19:43:39.715Z,102624.53
2023-01-22T19:46:08.311Z,102626.59
2023-01-22T19:48:35.109Z,102634.28
2023-01-22T19:51:04.862Z,102633.38
2023-01-22T19:53:31.607Z,102637.50
2023-01-22T19:55:59.484Z,102633.63
2023-01-22T19:58:25.973Z,102642.03
2023-01-22T20:00:52.577Z,102636.09
2023-01-22T20:03:19.001Z,102642.53
2023-01-22T20:05:45.377Z,102645.91
2023-01-22T20:08:11.939Z,102641.25
2023-01-22T20:10:38.346Z,102643.81
2023-01-22T20:13:07.140Z,102649.59
2023-01-22T20:15:37.306Z,102650.88
2023-01-22T20:18:04.011Z,102653.56
2023-01-22T20:20:30.431Z,102652.41
2023-01-22T20:22:56.974Z,102650.75
2023-01-22T20:25:23.528Z,102653.00
2023-01-22T20:27:51.865Z,102662.28
2023-01-22T20:30:20.498Z,102657.34
2023-01-22T20:32:46.907Z,102658.53
2023-01-22T20:35:13.328Z,102663.56
2023-01-22T20:37:39.747Z,102657.59
2023-01-22T20:40:07.424Z,102663.06
2023-01-22T20:42:33.850Z,102668.22
2023-01-22T20:45:00.243Z,102662.69
2023-01-22T20:47:27.978Z,102667.88
2023-01-22T20:49:54.628Z,102662.22
2023-01-22T20:52:21.137Z,102669.44
2023-01-22T20:55:00.804Z,102671.22
2023-01-22T20:57:27.854Z,102669.69
2023-01-22T20:59:54.455Z,102672.94
2023-01-22T21:02:20.940Z,102670.69
2023-01-22T21:04:51.450Z,102673.06
2023-01-22T21:07:17.873Z,102672.50
2023-01-22T21:09:44.317Z,102685.13
2023-01-22T21:12:10.751Z,102674.22
2023-01-22T21:14:37.142Z,102678.53
2023-01-22T21:17:03.538Z,102676.63
2023-01-22T21:19:29.973Z,102680.19
2023-01-22T21:21:57.991Z,102668.84
2023-01-22T21:24:24.610Z,102684.34
2023-01-22T21:26:51.063Z,102679.84
2023-01-22T21:29:19.500Z,102671.66
2023-01-22T21:31:46.910Z,102671.81
2023-01-22T21:34:13.386Z,102666.09
2023-01-22T21:36:41.972Z,102665.66
2023-01-22T21:39:14.841Z,102678.16
2023-01-22T21:41:41.792Z,102673.47
2023-01-22T21:44:10.641Z,102670.53
2023-01-22T21:46:39.828Z,102679.41
2023-01-22T21:49:08.286Z,102671.59
2023-01-22T21:51:34.687Z,102670.94
2023-01-22T21:54:01.178Z,102667.09
2023-01-22T21:56:28.959Z,102665.22
2023-01-22T21:58:55.827Z,102669.44
2023-01-22T22:01:22.319Z,102671.09
2023-01-22T22:03:48.965Z,102664.94
2023-01-22T22:06:15.518Z,102669.19
2023-01-22T22:08:42.005Z,102671.97
2023-01-22T22:11:08.408Z,102674.72
2023-01-22T22:13:36.272Z,102667.31
2023-01-22T22:16:04.652Z,102677.66
2023-01-22T22:18:31.328Z,102678.72
2023-01-22T22:21:00.472Z,102671.28
2023-01-22T22:23:26.993Z,102666.06
2023-01-22T22:25:53.384Z,102659.13
2023-01-22T22:28:19.828Z,102662.28
2023-01-22T22:30:47.666Z,102670.78
2023-01-22T22:33:14.081Z,102667.78
2023-01-22T22:35:40.490Z,102657.22
2023-01-22T22:38:06.911Z,102666.13
2023-01-22T22:40:33.326Z,102664.81
2023-01-22T22:42:59.733Z,102661.47
2023-01-22T22:45:26.164Z,102680.63
2023-01-22T22:47:53.948Z,102671.91
2023-01-22T22:50:20.563Z,102672.84
2023-01-22T22:52:47.223Z,102674.06
2023-01-22T22:55:13.641Z,102680.53
2023-01-22T22:57:40.063Z,102678.34
2023-01-22T23:00:09.356Z,102680.47
2023-01-22T23:02:35.886Z,102686.81
2023-01-22T23:05:03.904Z,102691.91
2023-01-22T23:07:30.341Z,102703.94
2023-01-22T23:09:56.734Z,102700.31
2023-01-22T23:12:23.150Z,102706.28
2023-01-22T23:14:49.741Z,102713.41
2023-01-22T23:17:16.170Z,102707.13
2023-01-22T23:19:42.659Z,102711.88
2023-01-22T23:22:10.509Z,102709.41
2023-01-22T23:24:36.898Z,102713.88
2023-01-22T23:27:03.401Z,102711.56
2023-01-22T23:29:29.953Z,102722.75
2023-01-22T23:31:56.494Z,102716.97
2023-01-22T23:34:23.120Z,102713.25
2023-01-22T23:36:50.775Z,102715.34
2023-01-22T23:39:20.426Z,102709.47
2023-01-22T23:41:47.262Z,102727.41
2023-01-22T23:44:13.811Z,102724.69
2023-01-22T23:46:40.798Z,102732.31
2023-01-22T23:49:07.212Z,102727.56
2023-01-22T23:51:33.704Z,102717.53
2023-01-22T23:54:00.163Z,102726.13
2023-01-22T23:56:29.087Z,102729.72
2023-01-22T23:58:56.389Z,102717.66
